Time;durP1;ratioP1;P1;durP2;ratioP2;P2;SDS_P1;SDS_P2;PMS_P1;PMS_P2;Temp;Humidity;BMP_temperature;BMP_pressure;BME280_temperature;BME280_humidity;BME280_pressure;Samples;Min_cycle;Max_cycle;Signal;HPM_P1;HPM_P2
2023/07/31 00:01:33;;;;;;;3.92;1.13;;;;;;;26.54;34.92;98190.22;5060519;28;20505;-68
2023/07/31 00:03:58;;;;;;;2.20;1.10;;;;;;;26.57;34.73;98183.56;5076499;28;20059;-69
2023/07/31 00:06:24;;;;;;;1.70;1.08;;;;;;;26.63;34.93;98188.81;5077088;28;20037;-68
2023/07/31 00:08:49;;;;;;;1.52;0.80;;;;;;;26.61;35.04;98174.03;5077097;28;20043;-68
2023/07/31 00:11:15;;;;;;;5.95;1.30;;;;;;;26.64;34.85;98176.25;5059964;28;20067;-68
2023/07/31 00:13:40;;;;;;;1.65;0.80;;;;;;;26.64;34.71;98170.88;5076942;28;20490;-69
2023/07/31 00:16:06;;;;;;;1.90;0.93;;;;;;;26.66;34.84;98179.53;5076997;28;20116;-68
2023/07/31 00:18:31;;;;;;;2.20;1.08;;;;;;;26.68;34.27;98185.47;5075904;28;20040;-68
2023/07/31 00:20:57;;;;;;;1.67;1.00;;;;;;;26.67;34.42;98179.28;5093670;28;20039;-68
2023/07/31 00:23:22;;;;;;;1.85;1.08;;;;;;;26.66;34.47;98177.69;5076029;28;20043;-68
2023/07/31 00:25:48;;;;;;;3.17;1.13;;;;;;;26.61;34.44;98161.47;5093798;28;20035;-68
2023/07/31 00:28:13;;;;;;;3.40;1.25;;;;;;;26.62;34.53;98165.78;5076630;28;20032;-68
2023/07/31 00:30:39;;;;;;;2.10;1.17;;;;;;;26.61;34.60;98156.09;5059633;28;20072;-67
2023/07/31 00:33:04;;;;;;;1.60;1.00;;;;;;;26.61;34.63;98152.63;5093510;28;20028;-67
2023/07/31 00:35:30;;;;;;;3.78;1.08;;;;;;;26.62;34.46;98151.59;5093550;28;20035;-68
2023/07/31 00:37:57;;;;;;;1.60;0.90;;;;;;;26.58;34.49;98148.53;5076239;28;20024;-68
2023/07/31 00:40:23;;;;;;;1.70;0.97;;;;;;;26.55;35.04;98146.34;5093694;28;20402;-68
2023/07/31 00:42:48;;;;;;;1.80;1.10;;;;;;;26.54;35.06;98142.06;5059056;28;20032;-68
2023/07/31 00:45:14;;;;;;;1.50;1.10;;;;;;;26.59;34.45;98144.81;5093347;28;20043;-68
2023/07/31 00:47:40;;;;;;;1.83;1.00;;;;;;;26.57;34.87;98138.91;5094380;28;20031;-68
2023/07/31 00:50:06;;;;;;;2.17;0.98;;;;;;;26.60;34.19;98140.28;5077007;28;20034;-68
2023/07/31 00:52:32;;;;;;;2.00;1.02;;;;;;;26.63;34.53;98143.31;5093081;28;20025;-68
2023/07/31 00:54:57;;;;;;;3.22;0.90;;;;;;;26.63;34.40;98140.66;5076515;28;20524;-68
2023/07/31 00:57:23;;;;;;;4.18;1.00;;;;;;;26.66;34.80;98147.41;5075963;28;20027;-68
2023/07/31 00:59:48;;;;;;;3.90;0.95;;;;;;;26.57;34.77;98140.75;5076072;28;20452;-68
2023/07/31 01:02:14;;;;;;;2.25;1.05;;;;;;;26.59;35.00;98138.66;5093112;28;20047;-68
2023/07/31 01:04:39;;;;;;;3.50;1.23;;;;;;;26.53;34.98;98127.88;5059165;28;20070;-68
2023/07/31 01:07:47;;;;;;;3.47;1.10;;;;;;;26.54;34.96;98124.13;5092690;28;20085;-68
2023/07/31 01:10:26;;;;;;;;;;;;;;;26.49;35.37;98128.56;5094090;28;20463;-68
2023/07/31 01:12:52;;;;;;;2.50;1.25;;;;;;;26.52;35.38;98131.59;5092818;28;19965;-68
2023/07/31 01:15:17;;;;;;;5.25;1.30;;;;;;;26.47;35.61;98123.44;5058703;28;20036;-68
2023/07/31 01:17:43;;;;;;;2.30;1.20;;;;;;;26.44;35.59;98129.28;5058623;28;20036;-68
2023/07/31 01:20:29;;;;;;;3.58;1.63;;;;;;;26.43;35.50;98126.81;5092918;28;20520;-68
2023/07/31 01:23:17;;;;;;;2.72;1.30;;;;;;;26.45;35.94;98128.19;5092754;28;20040;-69
2023/07/31 01:26:12;;;;;;;3.40;1.40;;;;;;;26.51;35.83;98121.91;5092937;28;20024;-68
2023/07/31 01:28:40;;;;;;;3.50;1.83;;;;;;;26.46;36.04;98132.53;5076148;28;20414;-68
2023/07/31 01:31:07;;;;;;;2.65;1.73;;;;;;;26.46;36.51;98127.16;5074838;28;20028;-69
2023/07/31 01:33:32;;;;;;;3.88;2.03;;;;;;;26.43;35.98;98130.31;5092519;28;20024;-68
2023/07/31 01:35:58;;;;;;;4.25;2.40;;;;;;;26.39;36.78;98134.50;5092149;28;20101;-69
2023/07/31 01:38:23;;;;;;;6.65;3.65;;;;;;;26.25;36.66;98125.09;5075490;28;20028;-68
2023/07/31 01:40:53;;;;;;;8.07;3.67;;;;;;;26.15;36.89;98134.50;5075545;28;20039;-69
2023/07/31 01:43:19;;;;;;;7.70;3.67;;;;;;;26.12;36.93;98134.16;5075905;28;20055;-68
2023/07/31 01:45:44;;;;;;;8.63;3.50;;;;;;;26.17;37.17;98128.91;5092791;28;20390;-68
2023/07/31 01:48:10;;;;;;;8.32;3.78;;;;;;;26.11;37.31;98140.56;5075447;28;20039;-68
2023/07/31 01:50:35;;;;;;;7.03;2.60;;;;;;;25.98;37.31;98146.94;5058578;28;20043;-69
2023/07/31 01:53:00;;;;;;;4.55;2.50;;;;;;;25.81;37.59;98150.28;5092132;28;20479;-68
2023/07/31 01:55:26;;;;;;;6.07;2.47;;;;;;;25.78;37.72;98150.72;5092350;28;20032;-69
2023/07/31 01:57:52;;;;;;;4.95;2.42;;;;;;;25.63;38.04;98155.69;5093396;28;20055;-69
2023/07/31 02:00:18;;;;;;;6.50;1.92;;;;;;;25.54;38.74;98157.88;5075101;28;20028;-68
2023/07/31 02:02:43;;;;;;;7.60;1.90;;;;;;;25.37;39.33;98151.56;5091786;28;20031;-68
2023/07/31 02:05:09;;;;;;;6.60;2.10;;;;;;;25.48;39.21;98164.13;5075012;28;20432;-68
2023/07/31 02:07:34;;;;;;;5.03;2.15;;;;;;;25.51;38.98;98178.88;5075025;28;20457;-68
2023/07/31 02:10:00;;;;;;;6.53;2.30;;;;;;;25.52;39.00;98167.16;5091853;28;20059;-68
2023/07/31 02:12:25;;;;;;;4.95;1.80;;;;;;;25.64;38.67;98168.00;5057635;28;20082;-68
2023/07/31 02:14:51;;;;;;;4.93;1.25;;;;;;;25.58;38.58;98167.06;5074721;28;20035;-67
2023/07/31 02:17:16;;;;;;;3.58;1.40;;;;;;;25.55;38.67;98164.84;5075143;28;20031;-67
2023/07/31 02:19:42;;;;;;;2.47;1.50;;;;;;;25.49;38.54;98164.94;5057443;28;20040;-67
2023/07/31 02:22:07;;;;;;;2.20;1.17;;;;;;;25.47;38.49;98167.84;5057452;28;20123;-67
2023/07/31 02:24:32;;;;;;;2.50;1.55;;;;;;;25.58;38.65;98168.94;5091430;28;20024;-67
2023/07/31 02:26:58;;;;;;;3.08;1.50;;;;;;;25.64;38.20;98168.00;5074541;28;20020;-67
2023/07/31 02:29:23;;;;;;;3.25;1.23;;;;;;;25.60;38.82;98167.66;5074749;28;20065;-67
2023/07/31 02:31:49;;;;;;;2.83;1.20;;;;;;;25.50;38.93;98170.06;5091002;28;20135;-67
2023/07/31 02:34:14;;;;;;;4.35;1.20;;;;;;;25.48;39.30;98174.81;5057346;28;20043;-67
2023/07/31 02:36:40;;;;;;;6.65;1.20;;;;;;;25.43;40.37;98166.69;5091254;28;20185;-68
2023/07/31 02:39:05;;;;;;;2.70;1.10;;;;;;;25.42;40.05;98173.06;5074996;28;20540;-68
2023/07/31 02:41:31;;;;;;;2.38;1.30;;;;;;;25.32;40.69;98175.44;5073693;28;20461;-68
2023/07/31 02:43:56;;;;;;;6.47;1.50;;;;;;;25.34;41.37;98184.06;5091367;28;20060;-69
2023/07/31 02:46:24;;;;;;;6.95;1.50;;;;;;;25.36;40.75;98174.78;5074301;28;20031;-69
2023/07/31 02:48:50;;;;;;;;;;;;;;;25.40;41.02;98175.97;5074835;28;20036;-70
2023/07/31 02:51:15;;;;;;;4.53;1.35;;;;;;;25.45;41.33;98172.59;5092720;28;19915;-69
2023/07/31 02:53:41;;;;;;;5.25;1.38;;;;;;;25.44;40.70;98179.81;5057445;28;20027;-69
2023/07/31 02:56:06;;;;;;;2.85;1.42;;;;;;;25.50;40.93;98177.28;5090809;28;20040;-69
2023/07/31 02:58:32;;;;;;;2.28;1.08;;;;;;;25.60;40.46;98185.53;5073961;28;20035;-69
2023/07/31 03:00:58;;;;;;;2.88;1.35;;;;;;;25.63;40.61;98187.75;5089063;28;20032;-68
2023/07/31 03:03:24;;;;;;;3.22;1.58;;;;;;;25.73;40.34;98188.03;5074003;28;20087;-67
2023/07/31 03:05:49;;;;;;;4.95;1.15;;;;;;;25.86;40.04;98183.53;5081131;28;20596;-70
2023/07/31 03:08:15;;;;;;;5.80;1.55;;;;;;;25.91;40.50;98184.47;5091578;28;20024;-70
2023/07/31 03:10:40;;;;;;;2.97;1.10;;;;;;;25.96;39.99;98184.56;5090638;28;20044;-71
2023/07/31 03:13:06;;;;;;;8.82;1.45;;;;;;;26.06;40.39;98185.91;5092117;28;20093;-69
2023/07/31 03:15:31;;;;;;;6.47;1.42;;;;;;;26.22;40.23;98197.78;5090980;28;20028;-68
2023/07/31 03:17:57;;;;;;;11.10;1.75;;;;;;;26.24;40.34;98185.81;5090978;28;20463;-68
2023/07/31 03:20:22;;;;;;;15.50;1.75;;;;;;;26.41;39.64;98190.44;5090998;28;20035;-70
2023/07/31 03:22:48;;;;;;;3.72;1.30;;;;;;;26.59;39.68;98189.53;5091058;28;20024;-72
2023/07/31 03:25:14;;;;;;;3.80;1.33;;;;;;;26.69;39.60;98187.09;5057272;28;20044;-71
2023/07/31 03:27:39;;;;;;;2.00;1.25;;;;;;;26.66;39.75;98180.34;5074476;28;20020;-75
2023/07/31 03:30:05;;;;;;;7.20;1.33;;;;;;;26.73;38.70;98187.44;5074018;28;20035;-69
2023/07/31 03:32:31;;;;;;;5.60;1.30;;;;;;;26.76;39.14;98181.59;5090748;28;20117;-68
2023/07/31 03:34:57;;;;;;;8.75;1.40;;;;;;;26.73;38.94;98179.41;5107177;28;20063;-69
2023/07/31 03:37:23;;;;;;;6.22;1.00;;;;;;;26.78;38.44;98193.72;5057236;28;20082;-68
2023/07/31 03:39:48;;;;;;;5.35;1.13;;;;;;;26.79;38.11;98194.50;5091528;28;20036;-69
2023/07/31 03:42:14;;;;;;;1.73;1.10;;;;;;;26.82;38.25;98194.88;5074040;28;20032;-69
2023/07/31 03:44:40;;;;;;;3.38;1.50;;;;;;;26.81;38.12;98187.88;5074173;28;20544;-67
2023/07/31 03:47:05;;;;;;;2.95;1.40;;;;;;;26.84;38.17;98192.78;5073907;28;20044;-66
2023/07/31 03:49:31;;;;;;;4.43;1.45;;;;;;;26.82;38.19;98192.19;5073915;28;20039;-66
2023/07/31 03:51:56;;;;;;;5.65;1.40;;;;;;;26.88;38.20;98185.06;5057105;28;20399;-66
2023/07/31 03:54:22;;;;;;;6.97;1.80;;;;;;;26.85;38.40;98183.69;5059160;28;20032;-66
2023/07/31 03:56:47;;;;;;;3.13;1.55;;;;;;;26.88;38.33;98193.94;5094632;28;20068;-65
2023/07/31 03:59:13;;;;;;;4.53;1.50;;;;;;;26.89;38.49;98189.38;5077431;28;20047;-65
2023/07/31 04:01:38;;;;;;;9.13;1.70;;;;;;;26.88;38.54;98191.25;5077468;28;20036;-66
2023/07/31 04:04:04;;;;;;;4.82;1.50;;;;;;;26.89;38.34;98200.09;5094234;28;20055;-66
2023/07/31 04:06:29;;;;;;;3.55;1.65;;;;;;;26.84;38.66;98208.03;5077377;28;20035;-66
2023/07/31 04:08:55;;;;;;;5.70;1.65;;;;;;;26.85;38.69;98199.75;5077224;28;20032;-66
2023/07/31 04:11:20;;;;;;;12.07;1.77;;;;;;;26.81;38.76;98203.94;5094177;28;20050;-66
2023/07/31 04:13:45;;;;;;;4.97;1.65;;;;;;;26.87;39.07;98202.19;5093652;28;20036;-65
2023/07/31 04:16:11;;;;;;;4.68;1.58;;;;;;;26.89;38.52;98208.94;5095438;28;20060;-65
2023/07/31 04:18:37;;;;;;;7.85;1.55;;;;;;;26.89;38.78;98214.28;5095109;28;20077;-65
2023/07/31 04:21:03;;;;;;;4.13;1.60;;;;;;;26.86;38.65;98204.03;5077059;28;20043;-66
2023/07/31 04:23:28;;;;;;;3.50;1.70;;;;;;;26.86;38.57;98212.09;5077122;28;20032;-65
2023/07/31 04:25:54;;;;;;;4.60;1.75;;;;;;;26.88;38.73;98201.97;5077113;28;20566;-65
2023/07/31 04:28:19;;;;;;;3.45;1.60;;;;;;;26.87;38.63;98199.53;5094287;28;20027;-64
2023/07/31 04:30:45;;;;;;;5.90;1.70;;;;;;;26.86;38.91;98201.38;5076332;28;20059;-66
2023/07/31 04:33:10;;;;;;;6.47;1.85;;;;;;;26.92;38.43;98202.31;5076836;28;20036;-66
2023/07/31 04:35:36;;;;;;;6.05;1.95;;;;;;;26.96;38.67;98210.66;5093823;28;20032;-68
2023/07/31 04:38:01;;;;;;;11.73;1.60;;;;;;;26.97;38.43;98205.06;5094997;28;20027;-66
2023/07/31 04:40:27;;;;;;;15.35;1.98;;;;;;;27.00;38.78;98212.63;5076803;28;20107;-66
2023/07/31 04:42:52;;;;;;;11.65;1.90;;;;;;;27.02;38.99;98210.53;5093606;28;20145;-66
2023/07/31 04:45:18;;;;;;;5.68;1.80;;;;;;;27.02;38.72;98218.56;5076719;28;20028;-67
2023/07/31 04:47:43;;;;;;;6.57;1.73;;;;;;;27.08;38.87;98220.31;5077169;28;20518;-67
2023/07/31 04:50:09;;;;;;;4.53;1.77;;;;;;;27.03;39.29;98216.72;5076140;28;20032;-67
2023/07/31 04:52:35;;;;;;;5.18;1.90;;;;;;;27.05;39.19;98226.13;5059281;28;20044;-66
2023/07/31 04:55:00;;;;;;;8.05;2.10;;;;;;;27.21;38.97;98235.28;5076255;28;20205;-67
2023/07/31 04:57:25;;;;;;;5.45;1.77;;;;;;;27.31;38.67;98240.09;5076120;28;20036;-67
2023/07/31 04:59:51;;;;;;;5.07;1.63;;;;;;;27.36;38.38;98232.16;5094528;28;20509;-67
2023/07/31 05:02:16;;;;;;;6.40;1.70;;;;;;;27.40;38.22;98235.16;5092330;28;20031;-68
2023/07/31 05:04:42;;;;;;;4.45;2.00;;;;;;;27.44;38.39;98239.00;5091648;28;20396;-69
2023/07/31 05:07:07;;;;;;;10.00;1.98;;;;;;;27.40;38.32;98237.84;5075607;28;20403;-68
2023/07/31 05:09:33;;;;;;;7.05;1.60;;;;;;;27.30;38.36;98237.63;5092358;28;20459;-67
2023/07/31 05:11:58;;;;;;;8.23;2.05;;;;;;;27.28;38.53;98248.56;5054961;28;20438;-67
2023/07/31 05:14:25;;;;;;;7.15;2.00;;;;;;;27.21;38.33;98251.38;5059316;28;20444;-68
2023/07/31 05:16:50;;;;;;;4.53;1.90;;;;;;;27.21;38.16;98247.88;5082090;28;20024;-68
2023/07/31 05:19:16;;;;;;;4.75;1.83;;;;;;;27.26;38.12;98248.81;5054006;28;20051;-67
2023/07/31 05:21:41;;;;;;;5.78;2.05;;;;;;;27.26;38.55;98253.34;5071671;28;20077;-67
2023/07/31 05:24:07;;;;;;;9.77;2.45;;;;;;;27.24;39.75;98258.94;5071960;28;20059;-67
2023/07/31 05:26:32;;;;;;;12.88;2.25;;;;;;;27.10;38.56;98259.44;5054440;28;20041;-67
2023/07/31 05:28:58;;;;;;;5.03;2.42;;;;;;;27.06;39.54;98264.47;5054939;28;20076;-67
2023/07/31 05:31:24;;;;;;;8.52;2.28;;;;;;;27.23;39.28;98265.34;5055573;28;20466;-67
2023/07/31 05:33:50;;;;;;;4.82;1.80;;;;;;;27.46;39.49;98260.19;5038723;28;20509;-68
2023/07/31 05:36:17;;;;;;;4.60;1.95;;;;;;;27.60;39.68;98266.91;5072025;28;20025;-71
2023/07/31 05:38:44;;;;;;;9.03;2.30;;;;;;;27.75;39.36;98269.88;5071916;28;20471;-68
2023/07/31 05:41:10;;;;;;;12.55;2.10;;;;;;;27.86;39.26;98276.22;5072256;28;20032;-77
2023/07/31 05:43:36;;;;;;;10.88;2.58;;;;;;;27.82;39.46;98276.94;5054756;28;20133;-72
2023/07/31 05:46:01;;;;;;;8.80;2.42;;;;;;;27.61;39.24;98279.22;5071351;28;20037;-74
2023/07/31 05:48:27;;;;;;;10.23;2.10;;;;;;;27.57;39.92;98286.94;5071088;28;20090;-70
2023/07/31 05:50:52;;;;;;;12.50;2.50;;;;;;;27.46;40.97;98295.03;5075560;28;20487;-78
2023/07/31 05:53:18;;;;;;;9.48;2.30;;;;;;;27.33;41.72;98298.81;5054872;28;20040;-74
2023/07/31 05:55:43;;;;;;;11.93;2.75;;;;;;;27.22;43.64;98300.44;5078794;28;20032;-75
2023/07/31 05:58:09;;;;;;;7.75;2.50;;;;;;;27.19;43.17;98304.38;5073927;28;20036;-76
2023/07/31 06:00:34;;;;;;;9.20;2.50;;;;;;;27.16;43.34;98317.44;5074973;28;20430;-75
2023/07/31 06:03:00;;;;;;;10.23;3.10;;;;;;;27.11;44.04;98326.19;5075431;28;20043;-74
2023/07/31 06:05:26;;;;;;;8.40;2.50;;;;;;;27.00;45.05;98324.31;5075095;28;20044;-75
2023/07/31 06:07:51;;;;;;;16.05;3.15;;;;;;;26.88;46.07;98335.03;5072660;28;20028;-74
2023/07/31 06:10:17;;;;;;;9.77;3.08;;;;;;;26.81;45.90;98340.50;5070466;28;20044;-75
2023/07/31 06:12:42;;;;;;;9.65;3.00;;;;;;;26.74;47.29;98347.84;5071249;28;20064;-75
2023/07/31 06:15:08;;;;;;;10.00;2.90;;;;;;;26.74;47.00;98339.81;5073318;28;20043;-77
2023/07/31 06:17:34;;;;;;;18.90;3.10;;;;;;;26.84;47.57;98336.56;5064005;28;20072;-78
2023/07/31 06:19:59;;;;;;;12.02;3.45;;;;;;;26.97;48.73;98338.19;5053454;28;20060;-75
2023/07/31 06:22:25;;;;;;;13.65;3.67;;;;;;;27.03;48.89;98338.06;5072552;28;20036;-79
2023/07/31 06:24:50;;;;;;;13.15;3.63;;;;;;;27.09;48.29;98339.00;5072233;28;20070;-75
2023/07/31 06:27:16;;;;;;;8.32;2.80;;;;;;;27.10;47.78;98342.47;5071460;28;20035;-77
2023/07/31 06:29:42;;;;;;;8.52;3.10;;;;;;;27.15;46.85;98346.09;5071278;28;20051;-77
2023/07/31 06:32:07;;;;;;;10.38;3.33;;;;;;;27.19;46.79;98347.25;5037971;28;20094;-79
2023/07/31 06:34:33;;;;;;;8.15;3.03;;;;;;;27.22;47.47;98348.66;5072412;28;20028;-77
2023/07/31 06:36:58;;;;;;;16.85;3.38;;;;;;;27.22;47.34;98344.09;5055101;28;20111;-82
2023/07/31 06:39:24;;;;;;;16.63;3.63;;;;;;;27.20;47.14;98348.88;5058203;28;20067;-77
2023/07/31 06:41:50;;;;;;;10.07;3.20;;;;;;;27.00;47.78;98356.47;5074439;28;20443;-75
2023/07/31 06:44:15;;;;;;;11.55;3.63;;;;;;;26.81;48.18;98371.81;5091290;28;20032;-76
2023/07/31 06:46:42;;;;;;;8.93;3.20;;;;;;;26.69;48.51;98377.16;5092308;28;20028;-77
2023/07/31 06:49:07;;;;;;;8.50;3.15;;;;;;;26.61;48.68;98366.75;5057870;28;20055;-78
2023/07/31 06:51:33;;;;;;;11.32;3.28;;;;;;;26.59;49.12;98360.81;5072488;28;20070;-73
2023/07/31 06:53:58;;;;;;;10.88;3.55;;;;;;;26.50;48.96;98344.28;5070575;28;20466;-75
2023/07/31 06:56:24;;;;;;;7.15;3.22;;;;;;;26.51;49.17;98364.66;5035461;28;20043;-76
2023/07/31 06:58:49;;;;;;;6.97;3.05;;;;;;;26.47;49.00;98347.41;5070709;28;20037;-75
2023/07/31 07:01:15;;;;;;;9.85;3.13;;;;;;;26.42;49.54;98340.06;5053720;28;20036;-75
2023/07/31 07:03:40;;;;;;;7.55;3.17;;;;;;;26.43;49.19;98347.06;5054646;28;20166;-76
2023/07/31 07:06:06;;;;;;;11.10;3.40;;;;;;;26.46;49.34;98351.16;5054166;28;20060;-76
2023/07/31 07:08:32;;;;;;;6.93;3.30;;;;;;;26.49;49.45;98351.50;5037803;28;20060;-77
2023/07/31 07:10:57;;;;;;;6.93;3.10;;;;;;;26.53;49.00;98352.69;5070178;28;20048;-76
2023/07/31 07:13:23;;;;;;;10.05;3.17;;;;;;;26.59;49.35;98345.56;5070842;28;20032;-75
2023/07/31 07:15:49;;;;;;;6.63;3.05;;;;;;;26.68;49.38;98349.56;5071770;28;20036;-76
2023/07/31 07:18:14;;;;;;;5.57;2.92;;;;;;;26.82;49.37;98347.50;5070641;28;20025;-74
2023/07/31 07:20:40;;;;;;;6.10;3.13;;;;;;;26.96;49.08;98344.56;5053915;28;20063;-74
2023/07/31 07:23:06;;;;;;;6.38;3.00;;;;;;;27.12;49.02;98343.88;5071759;28;20037;-75
2023/07/31 07:25:32;;;;;;;5.47;3.00;;;;;;;27.25;48.70;98342.81;5071895;28;20029;-76
2023/07/31 07:27:57;;;;;;;8.93;3.40;;;;;;;27.41;48.78;98342.13;5036937;28;20061;-77
2023/07/31 07:30:25;;;;;;;7.75;3.40;;;;;;;27.54;48.38;98338.34;5074308;28;20041;-75
2023/07/31 07:32:50;;;;;;;8.48;3.42;;;;;;;27.59;48.29;98341.13;5076012;28;20029;-79
2023/07/31 07:35:16;;;;;;;7.88;3.30;;;;;;;27.69;48.24;98334.34;5041091;28;20144;-76
2023/07/31 07:37:41;;;;;;;5.88;3.17;;;;;;;27.98;47.96;98333.34;5057087;28;20041;-77
2023/07/31 07:40:07;;;;;;;7.93;3.40;;;;;;;28.35;47.53;98334.78;5057683;28;20048;-76
2023/07/31 07:42:33;;;;;;;5.75;3.22;;;;;;;28.69;47.06;98340.22;5074428;28;20094;-76
2023/07/31 07:44:58;;;;;;;5.65;3.13;;;;;;;29.08;46.40;98337.53;5057464;28;20458;-78
2023/07/31 07:47:24;;;;;;;5.72;3.10;;;;;;;29.52;45.90;98347.56;5040998;28;20032;-76
2023/07/31 07:49:49;;;;;;;5.57;2.85;;;;;;;29.87;45.33;98349.06;5074688;28;20055;-78
2023/07/31 07:52:15;;;;;;;8.70;3.20;;;;;;;30.06;44.98;98344.16;5057674;28;20033;-76
2023/07/31 07:54:40;;;;;;;5.15;3.25;;;;;;;30.27;44.67;98339.78;5074502;28;20020;-77
2023/07/31 07:57:08;;;;;;;8.35;3.28;;;;;;;30.43;44.21;98343.47;5075676;28;20024;-76
2023/07/31 07:59:34;;;;;;;7.03;3.20;;;;;;;30.51;43.94;98340.28;5073701;28;20121;-76
2023/07/31 08:02:00;;;;;;;3.67;2.80;;;;;;;30.66;43.72;98335.03;5040964;28;20071;-76
2023/07/31 08:04:26;;;;;;;5.15;3.08;;;;;;;30.83;43.39;98339.44;5075524;28;20158;-74
2023/07/31 08:06:51;;;;;;;6.45;3.25;;;;;;;31.07;42.88;98329.09;5073271;28;20502;-75
2023/07/31 08:09:17;;;;;;;6.00;2.90;;;;;;;31.38;42.24;98334.66;5074611;28;20392;-75
2023/07/31 08:11:42;;;;;;;6.18;3.38;;;;;;;31.53;41.97;98334.78;5075317;28;20035;-77
2023/07/31 08:14:08;;;;;;;5.43;2.95;;;;;;;31.68;41.62;98334.00;5073656;28;20484;-74
2023/07/31 08:16:33;;;;;;;6.53;3.30;;;;;;;31.96;41.24;98328.41;5074700;28;20035;-77
2023/07/31 08:18:59;;;;;;;5.72;3.13;;;;;;;32.42;40.07;98328.50;5074413;28;20039;-77
2023/07/31 08:21:24;;;;;;;5.47;3.20;;;;;;;32.56;40.09;98323.34;5075178;28;20075;-76
2023/07/31 08:23:50;;;;;;;10.77;3.10;;;;;;;32.78;39.75;98326.59;5040884;28;20044;-77
2023/07/31 08:26:16;;;;;;;5.40;3.05;;;;;;;33.10;39.51;98327.31;5073842;28;20086;-77
2023/07/31 08:28:42;;;;;;;6.45;2.95;;;;;;;33.18;38.97;98318.69;5074985;28;20028;-76
2023/07/31 08:31:07;;;;;;;4.55;3.00;;;;;;;33.33;38.82;98312.41;5057267;28;20449;-76
2023/07/31 08:33:33;;;;;;;7.28;3.30;;;;;;;33.54;38.44;98318.53;5073143;28;20048;-76
2023/07/31 08:35:59;;;;;;;5.65;3.10;;;;;;;33.82;38.10;98321.69;5073957;28;20051;-76
2023/07/31 08:38:25;;;;;;;4.15;2.90;;;;;;;34.02;38.03;98320.75;5073556;28;20025;-76
2023/07/31 08:40:51;;;;;;;5.18;2.92;;;;;;;34.10;37.90;98325.56;5073293;28;20033;-76
2023/07/31 08:43:17;;;;;;;4.82;3.00;;;;;;;34.16;37.79;98319.03;5056789;28;20392;-76
2023/07/31 08:45:43;;;;;;;5.97;3.08;;;;;;;34.17;37.70;98328.75;5056606;28;20025;-75
2023/07/31 08:48:08;;;;;;;4.88;2.95;;;;;;;34.04;37.94;98330.19;5073421;28;20035;-76
2023/07/31 08:50:33;;;;;;;4.65;3.08;;;;;;;33.94;38.06;98335.69;5056766;28;20032;-77
2023/07/31 08:53:00;;;;;;;6.38;2.88;;;;;;;33.75;37.95;98340.94;5039888;28;20032;-76
2023/07/31 08:55:25;;;;;;;4.40;2.90;;;;;;;33.51;38.17;98338.84;5073382;28;20029;-75
2023/07/31 08:57:52;;;;;;;3.47;2.78;;;;;;;33.30;38.72;98338.09;5039777;28;20056;-75
2023/07/31 09:00:20;;;;;;;3.97;2.72;;;;;;;33.22;38.62;98349.50;5073760;28;20112;-75
2023/07/31 09:02:58;;;;;;;4.18;3.05;;;;;;;33.13;38.61;98351.09;5040089;28;20048;-75
2023/07/31 09:05:23;;;;;;;4.65;2.83;;;;;;;33.21;38.83;98347.06;5072996;28;20114;-77
2023/07/31 09:07:49;;;;;;;5.75;3.15;;;;;;;33.56;38.52;98343.44;5056132;28;20024;-75
2023/07/31 09:10:14;;;;;;;3.60;2.75;;;;;;;34.18;37.48;98346.63;5056364;28;20501;-76
2023/07/31 09:12:40;;;;;;;5.18;2.90;;;;;;;34.88;36.82;98347.47;5056601;28;20035;-77
2023/07/31 09:15:06;;;;;;;4.97;3.08;;;;;;;35.18;36.31;98345.53;5072555;28;20032;-76
2023/07/31 09:17:36;;;;;;;4.38;2.65;;;;;;;35.55;35.21;98338.59;5055781;28;20051;-75
2023/07/31 09:20:20;;;;;;;6.00;2.53;;;;;;;36.08;34.76;98343.06;5072566;28;20056;-79
2023/07/31 09:22:47;;;;;;;4.53;2.80;;;;;;;36.40;34.02;98343.13;5055882;28;20068;-75
2023/07/31 09:25:21;;;;;;;3.97;2.85;;;;;;;36.56;33.13;98334.69;5072563;28;20025;-76
2023/07/31 09:28:06;;;;;;;3.60;2.42;;;;;;;36.62;32.71;98335.44;5055303;28;20032;-74
2023/07/31 09:30:53;;;;;;;3.30;2.38;;;;;;;36.99;32.54;98339.13;5055890;28;20032;-76
2023/07/31 09:33:18;;;;;;;4.95;2.90;;;;;;;37.19;31.84;98338.75;5071473;28;20056;-75
2023/07/31 09:35:44;;;;;;;5.40;2.58;;;;;;;37.39;31.45;98331.31;5072481;28;20483;-76
2023/07/31 09:38:12;;;;;;;3.47;2.45;;;;;;;37.47;31.25;98323.25;5072195;28;20051;-75
2023/07/31 09:40:38;;;;;;;5.93;2.70;;;;;;;37.58;31.11;98325.75;5072307;28;20028;-75
2023/07/31 09:43:07;;;;;;;4.53;2.97;;;;;;;37.71;30.10;98332.31;5073575;28;20016;-76
2023/07/31 09:45:36;;;;;;;4.20;2.72;;;;;;;37.49;30.26;98325.66;5071959;28;20541;-75
2023/07/31 09:48:02;;;;;;;5.20;2.80;;;;;;;37.56;30.36;98328.78;5054617;28;20044;-76
2023/07/31 09:50:28;;;;;;;4.32;2.70;;;;;;;37.57;30.45;98318.69;5071843;28;20116;-75
2023/07/31 09:52:53;;;;;;;4.32;3.00;;;;;;;37.52;30.19;98316.09;5038650;28;20103;-75
2023/07/31 09:55:19;;;;;;;4.13;3.15;;;;;;;37.43;30.56;98316.81;5054615;28;20498;-76
2023/07/31 09:57:49;;;;;;;6.00;3.45;;;;;;;37.30;30.11;98323.06;5055208;28;20020;-75
2023/07/31 10:00:16;;;;;;;4.50;3.58;;;;;;;37.33;30.27;98322.44;5054887;28;20028;-75
2023/07/31 10:02:41;;;;;;;;;;;;;;;37.16;30.32;98314.06;5055505;28;20448;-75
2023/07/31 10:05:07;;;;;;;6.57;3.23;;;;;;;37.22;30.47;98316.41;5071535;28;19956;-77
2023/07/31 10:07:40;;;;;;;7.45;3.70;;;;;;;37.32;30.04;98317.31;5055107;28;20407;-78
2023/07/31 10:10:06;;;;;;;6.22;3.35;;;;;;;37.34;30.25;98318.63;5055322;28;20024;-77
2023/07/31 10:12:33;;;;;;;7.78;3.53;;;;;;;37.24;30.37;98310.66;5071565;28;20028;-76
2023/07/31 10:14:59;;;;;;;10.57;4.05;;;;;;;37.18;30.25;98306.41;5055110;28;20029;-76
2023/07/31 10:17:25;;;;;;;7.22;4.07;;;;;;;36.84;30.87;98305.69;5071237;28;20467;-76
2023/07/31 10:19:50;;;;;;;8.35;3.90;;;;;;;36.51;30.83;98302.97;5054904;28;20103;-76
2023/07/31 10:22:16;;;;;;;6.20;4.10;;;;;;;36.14;31.11;98301.94;5038562;28;20032;-75
2023/07/31 10:24:45;;;;;;;7.60;4.32;;;;;;;35.75;31.39;98297.63;5054843;28;20051;-78
2023/07/31 10:27:11;;;;;;;6.72;4.40;;;;;;;35.41;32.27;98303.22;5071582;28;20464;-75
2023/07/31 10:29:37;;;;;;;9.27;4.50;;;;;;;35.09;32.34;98299.22;5055072;28;20032;-76
2023/07/31 10:32:06;;;;;;;6.97;4.55;;;;;;;34.95;32.94;98299.13;5054219;28;20052;-76
2023/07/31 10:34:33;;;;;;;8.55;4.93;;;;;;;34.74;32.84;98291.22;5070965;28;20029;-75
2023/07/31 10:37:29;;;;;;;8.50;4.07;;;;;;;34.55;33.73;98290.28;5054274;28;20059;-75
2023/07/31 10:40:05;;;;;;;8.88;4.57;;;;;;;34.27;34.13;98278.34;5071245;28;20139;-76
2023/07/31 10:42:35;;;;;;;8.77;4.72;;;;;;;34.16;34.06;98283.81;5071094;28;20038;-76
2023/07/31 10:45:05;;;;;;;6.65;3.80;;;;;;;34.28;34.13;98277.25;5054378;28;20070;-76
2023/07/31 10:47:36;;;;;;;5.82;4.00;;;;;;;34.44;33.78;98276.00;5053753;28;20045;-76
2023/07/31 10:50:19;;;;;;;8.05;4.50;;;;;;;34.47;34.04;98274.66;5054625;28;20047;-77
2023/07/31 10:52:49;;;;;;;7.10;4.20;;;;;;;34.55;33.79;98266.69;5071345;28;20029;-74
2023/07/31 10:55:25;;;;;;;7.90;4.20;;;;;;;34.57;33.84;98271.81;5071242;28;20055;-75
2023/07/31 10:57:50;;;;;;;7.07;3.85;;;;;;;34.47;34.12;98267.31;5054621;28;20399;-77
2023/07/31 11:00:24;;;;;;;4.72;3.83;;;;;;;34.51;33.92;98276.50;5054545;28;20059;-76
2023/07/31 11:03:03;;;;;;;7.43;3.70;;;;;;;34.37;33.52;98262.81;5054006;28;20028;-76
2023/07/31 11:05:45;;;;;;;6.07;3.83;;;;;;;34.20;33.89;98260.47;5053061;28;20049;-76
2023/07/31 11:08:22;;;;;;;6.28;3.70;;;;;;;34.14;33.76;98249.97;5072344;28;20028;-75
2023/07/31 11:10:50;;;;;;;5.22;3.47;;;;;;;34.10;34.01;98251.66;5079540;28;20032;-78
2023/07/31 11:13:15;;;;;;;5.85;3.53;;;;;;;34.04;33.87;98245.47;5054261;28;20029;-81
2023/07/31 11:15:41;;;;;;;5.70;3.67;;;;;;;34.05;34.21;98244.38;5047975;28;20190;-76
2023/07/31 11:18:07;;;;;;;9.25;4.28;;;;;;;34.05;33.04;98238.97;5072897;28;20017;-80
2023/07/31 11:20:33;;;;;;;10.20;5.07;;;;;;;33.64;33.90;98231.91;5057175;28;20090;-85
2023/07/31 11:23:04;;;;;;;7.70;4.57;;;;;;;33.52;34.11;98237.63;5057591;28;20056;-86
2023/07/31 11:25:31;;;;;;;8.60;4.70;;;;;;;33.13;34.91;98235.66;5085023;28;20132;-89
2023/07/31 11:27:57;;;;;;;7.03;4.70;;;;;;;33.00;34.34;98228.97;5083443;28;20054;-86
2023/07/31 11:30:22;;;;;;;6.28;4.65;;;;;;;32.90;34.91;98220.09;5096098;28;20471;-87
2023/07/31 11:32:51;;;;;;;7.78;4.60;;;;;;;32.88;34.93;98223.06;5096046;28;20032;-87